createdAt,value
2022-11-30T00:01:14.384Z,26.27
2022-11-30T00:03:41.501Z,26.67
2022-11-30T00:06:11.342Z,29.00
2022-11-30T00:08:38.679Z,26.67
2022-11-30T00:11:14.767Z,27.42
2022-11-30T00:13:42.027Z,26.75
2022-11-30T00:16:10.088Z,28.27
2022-11-30T00:18:37.688Z,28.50
2022-11-30T00:21:08.587Z,29.55
2022-11-30T00:23:40.197Z,25.92
2022-11-30T00:26:09.743Z,28.13
2022-11-30T00:28:37.929Z,25.60
2022-11-30T00:31:07.876Z,26.40
2022-11-30T00:33:37.345Z,25.95
2022-11-30T00:36:07.283Z,25.42
2022-11-30T00:38:34.300Z,25.67
2022-11-30T00:41:02.115Z,24.30
2022-11-30T00:43:30.604Z,25.77
2022-11-30T00:45:57.828Z,24.95
2022-11-30T00:48:25.392Z,25.40
2022-11-30T00:50:52.636Z,24.88
2022-11-30T00:53:20.999Z,25.33
2022-11-30T00:55:48.487Z,24.48
2022-11-30T00:58:15.914Z,25.10
2022-11-30T01:00:43.432Z,23.85
2022-11-30T01:03:10.826Z,25.27
2022-11-30T01:05:38.581Z,25.95
2022-11-30T01:08:07.869Z,24.70
2022-11-30T01:10:36.622Z,25.02
2022-11-30T01:13:04.112Z,25.77
2022-11-30T01:15:31.711Z,25.92
2022-11-30T01:17:59.227Z,23.95
2022-11-30T01:20:26.320Z,25.33
2022-11-30T01:22:55.093Z,23.67
2022-11-30T01:25:22.674Z,24.75
2022-11-30T01:27:50.852Z,25.70
2022-11-30T01:30:18.414Z,25.77
2022-11-30T01:32:45.477Z,24.90
2022-11-30T01:35:12.499Z,26.45
2022-11-30T01:37:39.515Z,25.13
2022-11-30T01:40:07.269Z,24.60
2022-11-30T01:42:34.308Z,22.95
2022-11-30T01:45:02.490Z,25.55
2022-11-30T01:47:40.669Z,23.98
2022-11-30T01:50:32.301Z,23.85
2022-11-30T01:52:59.677Z,25.23
2022-11-30T01:55:36.178Z,22.50
2022-11-30T01:58:16.415Z,22.52
2022-11-30T02:00:47.111Z,25.38
2022-11-30T02:03:28.584Z,21.80
2022-11-30T02:05:55.680Z,23.67
2022-11-30T02:08:23.148Z,25.20
2022-11-30T02:10:54.550Z,23.17
2022-11-30T02:13:38.659Z,22.80
2022-11-30T02:16:44.009Z,22.88
2022-11-30T02:19:13.552Z,22.95
2022-11-30T02:21:51.478Z,23.50
2022-11-30T02:24:51.176Z,22.90
2022-11-30T02:27:28.076Z,21.13
2022-11-30T02:30:06.855Z,21.45
2022-11-30T02:32:39.396Z,22.90
2022-11-30T02:37:37.347Z,19.45
2022-11-30T02:40:14.830Z,22.98
2022-11-30T02:42:42.753Z,22.00
2022-11-30T02:45:11.309Z,22.00
2022-11-30T02:47:49.708Z,20.65
2022-11-30T02:50:43.195Z,20.85
2022-11-30T02:53:10.496Z,22.63
2022-11-30T02:55:37.523Z,22.27
2022-11-30T02:58:05.409Z,20.38
2022-11-30T03:00:32.606Z,21.25
2022-11-30T03:02:59.707Z,23.70
2022-11-30T03:05:26.735Z,23.13
2022-11-30T03:07:53.801Z,22.83
2022-11-30T03:10:20.933Z,21.25
2022-11-30T03:12:48.008Z,20.25
2022-11-30T03:15:15.135Z,21.45
2022-11-30T03:17:42.190Z,22.20
2022-11-30T03:20:09.942Z,20.25
2022-11-30T03:22:36.945Z,17.40
2022-11-30T03:25:04.182Z,20.17
2022-11-30T03:27:31.268Z,18.60
2022-11-30T03:29:58.247Z,18.67
2022-11-30T03:32:25.513Z,19.52
2022-11-30T03:34:52.596Z,18.83
2022-11-30T03:37:19.746Z,19.48
2022-11-30T03:39:46.735Z,18.60
2022-11-30T03:42:13.729Z,19.83
2022-11-30T03:44:40.755Z,19.00
2022-11-30T03:47:07.925Z,19.38
2022-11-30T03:49:34.957Z,20.48
2022-11-30T03:52:02.228Z,19.55
2022-11-30T03:54:29.204Z,19.65
2022-11-30T03:56:56.171Z,19.95
2022-11-30T03:59:23.199Z,20.42
2022-11-30T04:01:50.275Z,20.52
2022-11-30T04:04:17.332Z,21.63
2022-11-30T04:06:44.376Z,20.83
2022-11-30T04:09:12.512Z,21.08
2022-11-30T04:11:39.566Z,20.55
2022-11-30T04:14:06.577Z,20.63
2022-11-30T04:16:33.784Z,22.08
2022-11-30T04:19:00.944Z,20.38
2022-11-30T04:21:27.982Z,21.90
2022-11-30T04:23:54.965Z,20.73
2022-11-30T04:26:21.967Z,21.70
2022-11-30T04:28:49.015Z,21.65
2022-11-30T04:31:16.088Z,18.88
2022-11-30T04:33:43.135Z,19.77
2022-11-30T04:36:19.451Z,19.50
2022-11-30T04:38:47.199Z,18.17
2022-11-30T04:41:14.640Z,19.42
2022-11-30T04:43:41.630Z,19.92
2022-11-30T04:46:08.755Z,19.40
2022-11-30T04:48:35.900Z,20.10
2022-11-30T04:51:06.007Z,19.98
2022-11-30T04:53:33.986Z,19.83
2022-11-30T04:56:10.775Z,18.20
2022-11-30T04:58:38.909Z,19.95
2022-11-30T05:01:06.837Z,20.13
2022-11-30T05:03:33.997Z,18.90
2022-11-30T05:06:01.320Z,18.70
2022-11-30T05:08:28.344Z,18.23
2022-11-30T05:10:55.473Z,18.50
2022-11-30T05:13:26.269Z,18.73
2022-11-30T05:15:53.851Z,18.48
2022-11-30T05:18:21.397Z,17.40
2022-11-30T05:20:50.197Z,18.75
2022-11-30T05:23:17.943Z,18.08
2022-11-30T05:25:45.640Z,17.55
2022-11-30T05:28:13.424Z,17.52
2022-11-30T05:30:41.916Z,16.83
2022-11-30T05:33:09.362Z,18.02
2022-11-30T05:35:36.427Z,18.85
2022-11-30T05:38:04.515Z,17.45
2022-11-30T05:40:33.428Z,17.25
2022-11-30T05:43:02.082Z,18.05
2022-11-30T05:45:29.978Z,18.27
2022-11-30T05:47:57.077Z,17.40
2022-11-30T05:50:24.246Z,18.85
2022-11-30T05:52:56.414Z,17.90
2022-11-30T05:55:24.630Z,19.35
2022-11-30T05:57:51.843Z,19.15
2022-11-30T06:00:19.703Z,17.40
2022-11-30T06:02:46.991Z,17.90
2022-11-30T06:05:14.199Z,19.35
2022-11-30T06:07:41.713Z,19.13
2022-11-30T06:10:09.156Z,18.23
2022-11-30T06:12:36.216Z,16.70
2022-11-30T06:15:03.972Z,18.63
2022-11-30T06:17:31.108Z,17.80
2022-11-30T06:19:58.089Z,17.73
2022-11-30T06:22:25.405Z,17.83
2022-11-30T06:24:52.419Z,19.35
2022-11-30T06:27:19.459Z,18.38
2022-11-30T06:29:46.509Z,17.60
2022-11-30T06:32:13.658Z,17.10
2022-11-30T06:34:40.759Z,18.77
2022-11-30T06:37:07.779Z,17.48
2022-11-30T06:40:04.720Z,17.15
2022-11-30T06:42:22.188Z,19.42
2022-11-30T06:44:49.723Z,19.40
2022-11-30T06:47:16.802Z,18.05
2022-11-30T06:49:43.829Z,17.05
2022-11-30T06:52:10.916Z,16.88
2022-11-30T06:54:37.970Z,18.35
2022-11-30T06:57:05.000Z,18.02
2022-11-30T06:59:32.010Z,19.80
2022-11-30T07:02:02.883Z,18.90
2022-11-30T07:04:34.611Z,17.77
2022-11-30T07:07:01.642Z,15.13
2022-11-30T07:09:28.817Z,15.25
2022-11-30T07:11:55.803Z,15.38
2022-11-30T07:14:22.837Z,16.60
2022-11-30T07:16:49.877Z,15.65
2022-11-30T07:19:17.081Z,13.68
2022-11-30T07:21:44.575Z,12.82
2022-11-30T07:24:30.582Z,14.07
2022-11-30T07:27:00.061Z,13.40
2022-11-30T07:29:27.868Z,14.32
2022-11-30T07:31:55.562Z,12.55
2022-11-30T07:34:22.760Z,12.43
2022-11-30T07:36:49.844Z,12.73
2022-11-30T07:39:17.018Z,11.75
2022-11-30T07:41:44.422Z,12.93
2022-11-30T07:44:11.910Z,10.80
2022-11-30T07:46:39.163Z,11.95
2022-11-30T07:49:07.560Z,11.68
2022-11-30T07:51:35.910Z,11.13
2022-11-30T07:54:03.301Z,10.38
2022-11-30T07:56:30.413Z,10.38
2022-11-30T07:59:00.740Z,11.02
2022-11-30T08:01:31.033Z,10.77
2022-11-30T08:03:59.431Z,9.50
2022-11-30T08:06:28.676Z,10.88
2022-11-30T08:08:58.922Z,9.27
2022-11-30T08:11:30.094Z,11.95
2022-11-30T08:13:57.381Z,10.32
2022-11-30T08:16:27.297Z,11.30
2022-11-30T08:18:58.285Z,10.15
2022-11-30T08:21:25.772Z,11.75
2022-11-30T08:23:58.340Z,10.23
2022-11-30T08:28:58.778Z,10.75
2022-11-30T08:31:31.677Z,11.77
2022-11-30T08:34:15.353Z,11.00
2022-11-30T08:36:44.105Z,11.68
2022-11-30T08:39:14.030Z,10.52
2022-11-30T08:41:41.020Z,11.38
2022-11-30T08:44:08.080Z,12.18
2022-11-30T08:46:50.933Z,10.73
2022-11-30T08:49:23.057Z,11.30
2022-11-30T08:54:42.634Z,11.18
2022-11-30T08:57:09.802Z,10.93
2022-11-30T08:59:37.064Z,13.20
2022-11-30T09:02:04.168Z,12.13
2022-11-30T09:04:31.216Z,11.60
2022-11-30T09:06:59.480Z,10.90
2022-11-30T09:09:26.845Z,11.70
2022-11-30T09:11:53.826Z,10.75
2022-11-30T09:14:20.941Z,11.52
2022-11-30T09:16:48.057Z,10.82
2022-11-30T09:19:15.038Z,10.48
2022-11-30T09:21:45.400Z,11.48
2022-11-30T09:24:16.835Z,10.68
2022-11-30T09:26:43.862Z,11.00
2022-11-30T09:29:10.853Z,10.68
2022-11-30T09:31:37.862Z,11.10
2022-11-30T09:34:05.247Z,10.65
2022-11-30T09:36:33.922Z,11.50
2022-11-30T09:39:01.984Z,11.63
2022-11-30T09:41:56.970Z,11.52
2022-11-30T09:44:45.939Z,11.85
2022-11-30T09:47:22.882Z,11.98
2022-11-30T09:49:52.108Z,12.52
2022-11-30T09:52:33.800Z,10.98
2022-11-30T09:55:06.817Z,11.18
2022-11-30T09:58:01.829Z,10.70
2022-11-30T10:00:29.199Z,9.90
2022-11-30T10:02:59.131Z,9.25
2022-11-30T10:05:40.974Z,8.82
2022-11-30T10:08:23.279Z,9.48
2022-11-30T10:11:12.588Z,8.15
2022-11-30T10:14:00.682Z,10.05
2022-11-30T10:16:55.419Z,7.90
2022-11-30T10:20:00.374Z,8.10
2022-11-30T10:23:13.064Z,7.15
2022-11-30T10:25:54.986Z,7.43
2022-11-30T10:28:53.148Z,6.93
2022-11-30T10:31:29.364Z,7.97
2022-11-30T10:34:03.311Z,7.32
2022-11-30T10:36:39.650Z,7.55
2022-11-30T10:39:19.200Z,7.68
2022-11-30T10:42:04.324Z,7.07
2022-11-30T10:44:39.981Z,7.07
2022-11-30T10:47:20.121Z,7.47
2022-11-30T10:49:50.651Z,7.72
2022-11-30T10:52:26.343Z,7.80
2022-11-30T10:55:00.591Z,6.95
2022-11-30T10:57:32.018Z,6.55
2022-11-30T11:00:03.331Z,8.18
2022-11-30T11:02:35.031Z,7.30
2022-11-30T11:05:15.894Z,6.70
2022-11-30T11:07:50.764Z,7.40
2022-11-30T11:10:45.480Z,6.90
2022-11-30T11:13:35.227Z,14.00
2022-11-30T11:16:03.305Z,11.52
2022-11-30T11:18:51.389Z,8.75
2022-11-30T11:21:20.025Z,9.48
2022-11-30T11:23:51.332Z,9.10
2022-11-30T11:26:27.964Z,7.13
2022-11-30T11:28:59.392Z,6.93
2022-11-30T11:31:40.951Z,6.72
2022-11-30T11:34:31.767Z,6.85
2022-11-30T11:37:19.054Z,8.00
2022-11-30T11:39:59.984Z,8.70
2022-11-30T11:42:30.790Z,6.90
2022-11-30T11:44:59.773Z,7.50
2022-11-30T11:47:32.937Z,6.28
2022-11-30T11:51:05.474Z,6.30
2022-11-30T11:53:24.289Z,5.10
2022-11-30T11:55:59.912Z,6.20
2022-11-30T11:58:37.661Z,6.10
2022-11-30T12:01:38.703Z,8.13
2022-11-30T12:06:32.220Z,5.65
2022-11-30T12:09:14.958Z,6.60
2022-11-30T12:11:43.457Z,5.78
2022-11-30T12:14:16.566Z,6.30
2022-11-30T12:17:10.938Z,6.43
2022-11-30T12:20:07.017Z,6.47
2022-11-30T12:23:12.698Z,6.95
2022-11-30T12:25:44.161Z,6.70
2022-11-30T12:28:29.446Z,5.68
2022-11-30T12:31:17.829Z,5.35
2022-11-30T12:34:04.624Z,5.95
2022-11-30T12:36:49.927Z,6.13
2022-11-30T12:39:52.401Z,6.30
2022-11-30T12:42:36.965Z,4.82
2022-11-30T12:45:12.765Z,5.55
2022-11-30T12:47:45.262Z,5.47
2022-11-30T12:50:37.398Z,4.93
2022-11-30T12:53:10.867Z,5.10
2022-11-30T12:56:17.063Z,5.45
2022-11-30T12:58:49.859Z,4.53
2022-11-30T13:01:34.916Z,5.43
2022-11-30T13:04:16.255Z,5.00
2022-11-30T13:07:24.653Z,5.13
2022-11-30T13:10:04.116Z,5.10
2022-11-30T13:12:38.371Z,6.03
2022-11-30T13:15:21.841Z,5.78
2022-11-30T13:17:50.351Z,4.38
2022-11-30T13:20:27.896Z,5.13
2022-11-30T13:23:13.836Z,5.97
2022-11-30T13:26:08.863Z,4.80
2022-11-30T13:28:42.002Z,4.78
2022-11-30T13:33:54.443Z,5.45
2022-11-30T13:36:24.241Z,5.13
2022-11-30T13:39:14.237Z,5.97
2022-11-30T13:41:43.623Z,5.47
2022-11-30T13:44:33.637Z,5.35
2022-11-30T13:47:03.377Z,5.95
2022-11-30T13:49:35.720Z,6.32
2022-11-30T13:54:57.270Z,5.75
2022-11-30T13:57:24.497Z,6.88
2022-11-30T13:59:55.144Z,7.55
2022-11-30T14:02:34.413Z,6.22
2022-11-30T14:05:16.720Z,6.00
2022-11-30T14:07:46.239Z,6.25
2022-11-30T14:10:33.521Z,7.25
2022-11-30T14:13:05.618Z,5.65
2022-11-30T14:15:38.474Z,6.10
2022-11-30T14:18:18.899Z,6.18
2022-11-30T14:20:51.171Z,5.78
2022-11-30T14:23:23.235Z,5.07
2022-11-30T14:25:52.269Z,5.93
2022-11-30T14:28:23.517Z,6.10
2022-11-30T14:30:51.408Z,5.20
2022-11-30T14:33:25.453Z,5.47
2022-11-30T14:35:57.880Z,6.15
2022-11-30T14:38:30.899Z,5.38
2022-11-30T14:40:58.612Z,6.25
2022-11-30T14:43:25.619Z,6.22
2022-11-30T14:46:04.361Z,6.32
2022-11-30T14:48:32.263Z,5.93
2022-11-30T14:51:03.378Z,5.78
2022-11-30T14:53:49.367Z,5.85
2022-11-30T14:56:29.193Z,6.18
2022-11-30T14:59:09.669Z,5.80
2022-11-30T15:01:39.694Z,6.55
2022-11-30T15:04:12.823Z,5.57
2022-11-30T15:06:40.941Z,5.82
2022-11-30T15:09:17.121Z,6.50
2022-11-30T15:11:46.719Z,8.45
2022-11-30T15:14:13.736Z,6.38
2022-11-30T15:16:58.777Z,6.38
2022-11-30T15:19:32.109Z,4.80
2022-11-30T15:21:59.496Z,5.22
2022-11-30T15:24:29.333Z,5.88
2022-11-30T15:27:13.609Z,7.70
2022-11-30T15:29:56.770Z,7.32
2022-11-30T15:32:24.808Z,6.00
2022-11-30T15:34:57.103Z,7.20
2022-11-30T15:37:33.681Z,6.32
2022-11-30T15:40:03.224Z,5.78
2022-11-30T15:42:39.827Z,7.03
2022-11-30T15:45:35.891Z,6.03
2022-11-30T15:48:03.825Z,6.47
2022-11-30T15:50:39.267Z,6.47
2022-11-30T15:53:28.324Z,5.88
2022-11-30T15:56:07.594Z,6.50
2022-11-30T15:58:45.289Z,6.97
2022-11-30T16:01:14.292Z,7.18
2022-11-30T16:03:59.677Z,7.15
2022-11-30T16:06:44.875Z,8.63
2022-11-30T16:09:32.119Z,6.93
2022-11-30T16:12:02.079Z,8.15
2022-11-30T16:14:29.345Z,7.70
2022-11-30T16:17:16.759Z,6.40
2022-11-30T16:19:58.595Z,6.47
2022-11-30T16:22:29.226Z,6.85
2022-11-30T16:24:56.219Z,6.88
2022-11-30T16:27:23.246Z,6.47
2022-11-30T16:29:52.837Z,6.72
2022-11-30T16:32:20.228Z,6.07
2022-11-30T16:34:47.766Z,6.07
2022-11-30T16:37:14.913Z,6.75
2022-11-30T16:39:42.220Z,6.68
2022-11-30T16:42:12.558Z,6.13
2022-11-30T16:44:39.659Z,7.10
2022-11-30T16:47:06.761Z,7.75
2022-11-30T16:49:33.862Z,6.63
2022-11-30T16:52:00.915Z,6.85
2022-11-30T16:54:28.220Z,6.55
2022-11-30T16:56:55.241Z,6.20
2022-11-30T16:59:22.227Z,7.07
2022-11-30T17:01:53.288Z,7.20
2022-11-30T17:04:22.967Z,6.75
2022-11-30T17:06:51.719Z,6.90
2022-11-30T17:09:21.986Z,7.22
2022-11-30T17:11:50.592Z,7.38
2022-11-30T17:14:19.037Z,6.43
2022-11-30T17:16:46.073Z,6.63
2022-11-30T17:19:13.126Z,6.65
2022-11-30T17:21:42.055Z,7.53
2022-11-30T17:24:09.211Z,6.70
2022-11-30T17:26:36.217Z,6.22
2022-11-30T17:29:03.742Z,6.20
2022-11-30T17:31:30.823Z,7.03
2022-11-30T17:33:58.925Z,6.15
2022-11-30T17:36:26.932Z,6.03
2022-11-30T17:38:54.001Z,6.30
2022-11-30T17:41:22.393Z,6.38
2022-11-30T17:43:49.481Z,6.65
2022-11-30T17:46:18.005Z,6.68
2022-11-30T17:48:45.514Z,6.40
2022-11-30T17:51:13.573Z,5.90
2022-11-30T17:53:42.121Z,4.70
2022-11-30T17:56:15.196Z,5.10
2022-11-30T17:58:44.578Z,4.75
2022-11-30T18:01:20.998Z,5.97
2022-11-30T18:03:48.170Z,6.07
2022-11-30T18:06:15.753Z,7.60
2022-11-30T18:08:43.800Z,5.85
2022-11-30T18:11:16.272Z,5.72
2022-11-30T18:13:43.557Z,5.85
2022-11-30T18:16:13.543Z,4.78
2022-11-30T18:18:47.053Z,4.80
2022-11-30T18:21:17.031Z,4.88
2022-11-30T18:23:44.120Z,4.43
2022-11-30T18:26:14.679Z,4.63
2022-11-30T18:28:42.055Z,4.45
2022-11-30T18:31:09.785Z,5.68
2022-11-30T18:33:37.671Z,7.40
2022-11-30T18:36:07.295Z,4.25
2022-11-30T18:38:37.863Z,5.45
2022-11-30T18:41:06.663Z,3.88
2022-11-30T18:43:34.785Z,5.43
2022-11-30T18:46:06.831Z,4.63
2022-11-30T18:48:34.102Z,4.18
2022-11-30T18:51:11.724Z,4.70
2022-11-30T18:53:38.752Z,5.20
2022-11-30T18:56:20.554Z,4.57
2022-11-30T18:58:48.276Z,5.45
2022-11-30T19:01:18.614Z,4.78
2022-11-30T19:03:52.370Z,4.60
2022-11-30T19:06:19.992Z,5.90
2022-11-30T19:08:47.743Z,5.40
2022-11-30T19:11:16.020Z,5.22
2022-11-30T19:13:44.036Z,5.25
2022-11-30T19:16:14.557Z,5.82
2022-11-30T19:18:42.395Z,6.55
2022-11-30T19:21:14.883Z,6.70
2022-11-30T19:23:41.939Z,6.70
2022-11-30T19:26:10.133Z,6.72
2022-11-30T19:28:38.769Z,6.82
2022-11-30T19:31:08.477Z,5.65
2022-11-30T19:33:37.207Z,5.78
2022-11-30T19:36:06.057Z,6.28
2022-11-30T19:38:33.705Z,6.47
2022-11-30T19:41:06.012Z,5.78
2022-11-30T19:43:33.355Z,6.63
2022-11-30T19:46:07.934Z,7.05
2022-11-30T19:48:35.434Z,7.10
2022-11-30T19:51:14.837Z,7.53
2022-11-30T19:53:44.852Z,7.25
2022-11-30T19:56:14.879Z,6.45
2022-11-30T19:58:44.693Z,6.50
2022-11-30T20:01:13.335Z,6.63
2022-11-30T20:03:40.478Z,8.05
2022-11-30T20:06:07.737Z,6.78
2022-11-30T20:09:15.998Z,7.18
2022-11-30T20:11:42.980Z,7.75
2022-11-30T20:14:15.768Z,7.90
2022-11-30T20:16:43.013Z,7.05
2022-11-30T20:19:10.842Z,6.90
2022-11-30T20:21:38.002Z,7.20
2022-11-30T20:24:07.812Z,7.55
2022-11-30T20:26:37.725Z,6.60
2022-11-30T20:29:06.476Z,6.88
2022-11-30T20:31:36.118Z,7.20
2022-11-30T20:34:03.603Z,6.93
2022-11-30T20:36:30.743Z,8.65
2022-11-30T20:38:58.242Z,8.35
2022-11-30T20:41:26.029Z,8.15
2022-11-30T20:43:53.558Z,7.45
2022-11-30T20:46:27.460Z,8.02
2022-11-30T20:48:55.221Z,7.32
2022-11-30T20:51:31.194Z,8.27
2022-11-30T20:54:05.475Z,6.68
2022-11-30T20:56:37.352Z,7.55
2022-11-30T20:59:08.157Z,7.45
2022-11-30T21:01:35.352Z,6.85
2022-11-30T21:04:02.484Z,6.00
2022-11-30T21:06:30.510Z,6.53
2022-11-30T21:08:58.911Z,6.85
2022-11-30T21:11:27.544Z,6.63
2022-11-30T21:13:56.195Z,6.65
2022-11-30T21:16:28.581Z,6.50
2022-11-30T21:18:58.532Z,6.45
2022-11-30T21:21:30.760Z,6.35
2022-11-30T21:24:03.459Z,6.53
2022-11-30T21:29:04.757Z,5.13
2022-11-30T21:31:31.993Z,5.25
2022-11-30T21:33:59.426Z,5.47
2022-11-30T21:36:26.676Z,5.57
2022-11-30T21:39:05.140Z,6.80
2022-11-30T21:41:34.628Z,6.43
2022-11-30T21:44:02.390Z,6.30
2022-11-30T21:46:29.972Z,6.63
2022-11-30T21:48:57.231Z,6.63
2022-11-30T21:51:26.952Z,5.65
2022-11-30T21:53:56.353Z,5.72
2022-11-30T21:56:26.078Z,5.88
2022-11-30T21:58:53.236Z,5.28
2022-11-30T22:01:27.891Z,6.45
2022-11-30T22:03:56.142Z,5.57
2022-11-30T22:06:24.924Z,5.53
2022-11-30T22:08:52.306Z,5.95
2022-11-30T22:11:22.166Z,4.95
2022-11-30T22:13:51.234Z,4.95
2022-11-30T22:16:19.582Z,5.45
2022-11-30T22:18:47.309Z,5.47
2022-11-30T22:21:19.293Z,5.15
2022-11-30T22:23:49.167Z,5.10
2022-11-30T22:26:30.432Z,5.00
2022-11-30T22:29:00.856Z,5.28
2022-11-30T22:31:33.872Z,4.75
2022-11-30T22:34:01.088Z,4.70
2022-11-30T22:36:30.531Z,4.10
2022-11-30T22:38:59.780Z,4.18
2022-11-30T22:41:29.560Z,4.53
2022-11-30T22:43:57.642Z,4.25
2022-11-30T22:46:30.393Z,4.13
2022-11-30T22:49:02.596Z,3.65
2022-11-30T22:51:31.323Z,3.25
2022-11-30T22:53:59.375Z,3.45
2022-11-30T22:56:28.987Z,2.85
2022-11-30T22:58:59.886Z,2.67
2022-11-30T23:01:32.842Z,2.60
2022-11-30T23:04:09.251Z,2.97
2022-11-30T23:06:37.737Z,2.75
2022-11-30T23:09:07.617Z,3.08
2022-11-30T23:11:34.906Z,3.53
2022-11-30T23:14:05.892Z,2.67
2022-11-30T23:16:32.969Z,2.40
2022-11-30T23:19:00.497Z,2.88
2022-11-30T23:21:30.646Z,2.95
2022-11-30T23:24:00.463Z,3.50
2022-11-30T23:26:30.255Z,2.85
2022-11-30T23:29:03.430Z,2.35
2022-11-30T23:31:35.438Z,2.95
2022-11-30T23:34:18.022Z,2.53
2022-11-30T23:36:45.490Z,3.30
2022-11-30T23:39:14.860Z,2.85
2022-11-30T23:41:42.105Z,2.35
2022-11-30T23:44:10.134Z,2.30
2022-11-30T23:46:37.365Z,2.40
2022-11-30T23:49:04.503Z,2.50
2022-11-30T23:51:31.773Z,1.92
2022-11-30T23:53:58.731Z,2.80
2022-11-30T23:56:25.817Z,1.80
2022-11-30T23:58:53.021Z,2.38
